NWS Home NWS Lubbock West Texas Mesonet Latest Conditions as of 0956 AM, Sat Jul 23, 2016

Latest   N   C   S   Daily Sum   3hrΔ   24hrΔ   Soil Data 
Site Map   24hr Precip   72hr Precip   Google Plot


Station Time of Last Temp Dew Pt. RH Wind Direction Wind Speed Wind Gust Max Wind Max Temp Min Temp Max RH Min RH Altimeter 1HR Rain Today's Rain Solar Rad
Abernathy 5ENE  09:50 AM 84 58 44% SW1824 24 mph 219° @ 0950 AM 84 63 81 44 30.10" 0 0 541
Aiken 3WSW  09:50 AM 84 61 46% SW2024 24 mph 221° @ 0950 AM 84 62 86 45 30.11" 0 0 572
Amarillo 15NNW   09:50 AM 90 57 34% SW1822 25 mph 226° @ 0856 AM 90 66 64 34 30.06" 0 0 529
Amarillo 7SSE  09:50 AM 87 57 37% SW1823 26 mph 218° @ 0906 AM 87 63 73 37 30.10" 0 0 546
Amarillo 9NNE  09:50 AM 87 57 36% SW1014 23 mph 231° @ 0937 AM 87 66 63 36 30.07" 0 0 516
Amherst 1NE  09:50 AM 83 56 40% S1822 23 mph 203° @ 0925 AM 83 68 62 40 30.10" 0 0 540
Andrews 2E  09:50 AM 85 56 37% S1321 22 mph 175° @ 0935 AM 85 71 57 34 30.08" 0 0 509
Anton 6SSW  09:50 AM 83 60 49% S1822 24 mph 205° @ 0930 AM 83 64 78 49 30.10" 0 0 537
Aspermont 3NE  09:50 AM 90 62 40% S1217 17 mph 206° @ 0925 AM 90 73 62 40 30.01" 0 0 559
Big Bend NP - Persimmon Gap  09:50 AM 86 57 37% NE45 16 mph 115° @ 0409 AM 87 81 43 32 30.06" 0 0 515
Bootleg 11WNW  09:45 AM 82 55 39% SW2124 28 mph 214° @ 0840 AM 83 65 60 39 30.14" 0 0 453
Boys Ranch 1WSW  09:50 AM 88 55 33% SW1218 19 mph 239° @ 0938 AM 88 73 53 31 30.05" 0 0 522
Brownfield 2S  09:50 AM 83 58 43% S1317 18 mph 197° @ 0940 AM 83 65 71 43 30.10" 0 0 550
Canadian 6E  09:50 AM 86 64 48% SW34 15 mph 157° @ 0239 AM 86 71 70 47 29.99" 0 0 558
Caprock Canyons State Park  09:50 AM 87 59 39% SW1720 28 mph 240° @ 0847 AM 87 74 57 38 30.04" 0 0 460
Childress 2NNE  09:50 AM 87 60 42% SW911 17 mph 176° @ 0335 AM 87 71 72 42 30.00" 0 0 557
Clarendon 2WSW  09:50 AM 86 57 38% SW1623 23 mph 246° @ 0950 AM 86 67 71 38 30.04" 0 0 549
Claude 12SW  09:50 AM 84 57 40% SW710 20 mph 216° @ 0900 AM 84 75 51 38 30.10" 0 0 555
Clyde 2WNW  09:50 AM 85 69 58% SW1416 20 mph 192° @ 0937 AM 85 73 70 48 30.06" 0 0 555
Coyanosa 2N  09:50 AM 86 60 41% SE1215 20 mph 120° @ 0916 AM 86 71 63 35 30.04" 0 0 441
Dell City  09:50 AM 82 57 43% SE67 22 mph 143° @ 1218 AM 85 67 63 33 30.10" 0 0 493
Denver City 7WNW  09:50 AM 83 55 39% S1620 21 mph 185° @ 0920 AM 83 67 63 39 30.11" 0 0 525
Dimmitt 2NE  09:50 AM 82 57 44% S1822 27 mph 204° @ 0920 AM 82 65 67 44 30.11" 0 0 500
Dora NM 2SW  09:50 AM 83 53 36% S2228 28 mph 202° @ 0930 AM 83 69 53 36 30.14" 0 0 439
Dozier 3W  09:50 AM 86 66 52% SE46 8 mph 131° @ 0936 AM 86 71 71 50 30.03" 0 0 529
Floydada 2NNE  09:50 AM 84 57 40% SW1621 23 mph 229° @ 0940 AM 84 68 67 40 30.09" 0 0 555
Fluvanna 3WNW  09:50 AM 83 60 47% S1418 18 mph 185° @ 0950 AM 83 71 61 40 30.07" 0 0 518
Fort Lancaster  09:50 AM 85 68 56% SE1416 19 mph 137° @ 0856 AM 86 78 69 42 30.05" 0 0 519
Fort McKavett  09:50 AM 86 68 55% S1012 18 mph 171° @ 0919 AM 87 75 76 47 30.08" 0 0 541
Friona 2NE  09:50 AM 83 56 40% SW1620 28 mph 218° @ 0845 AM 83 63 69 40 30.12" 0 0 522
Gail 2ESE  09:50 AM 85 63 48% S1015 17 mph 196° @ 0930 AM 85 69 70 46 30.05" 0 0 484
Goodlett 3W  09:50 AM 89 60 39% S1215 16 mph 230° @ 0905 AM 89 73 67 39 29.98" 0 0 536
Goodnight  09:50 AM 85 59 41% SW1923 26 mph 235° @ 0948 AM 85 66 77 41 30.08" 0 0 574
Graham 5SSW  09:50 AM 86 59 41% S1317 21 mph 199° @ 0935 AM 86 75 52 35 30.07" 0 0 510
Guadalupe Mtns Natl Park  09:50 AM 80 49 34% SE24 15 mph 297° @ 0537 AM 80 69 50 33 30.23" 0 0 495
Guthrie 10WSW  09:50 AM 89 61 39% SW1217 22 mph 217° @ 0935 AM 89 73 61 39 30.01" 0 0 483
Hart 3N  09:50 AM 80 58 49% SW1015 20 mph 210° @ 0940 AM 80 61 87 49 30.11" 0 0 547
Haskell 1NW  09:50 AM 88 61 43% SW1317 17 mph 209° @ 0950 AM 88 77 57 38 30.00" 0 0 512
Hereford 2NW  09:50 AM 83 53 36% SW1724 25 mph 221° @ 0920 AM 83 67 57 36 30.10" 0 0 542
Hobbs NM 5NW  09:50 AM 83 55 38% S1517 23 mph 189° @ 0930 AM 83 73 53 32 30.14" 0 0 510
Jayton 1SSE  09:50 AM 88 62 43% SW1116 16 mph 210° @ 0915 AM 88 73 61 43 30.03" 0 0 528
Junction 1SSW  09:50 AM 86 68 55% SW1011 18 mph 160° @ 0149 AM 86 73 83 47 30.06" 0 0 462
Knox City 3NW  09:50 AM 90 60 38% SW1417 21 mph 209° @ 0925 AM 90 75 60 38 30.00" 0 0 484
Lake Alan Henry 1NW  09:50 AM 89 61 38% SW1014 19 mph 218° @ 0903 AM 89 77 50 38 30.04" 0 0 550
Lamesa 2SE  09:50 AM 82 63 53% S1317 17 mph 182° @ 0950 AM 82 67 76 53 30.08" 0 0 464
Levelland 4S  09:50 AM 84 57 40% SW1418 19 mph 208° @ 0945 AM 84 62 74 40 30.11" 0 0 524
Lomax 1SSE  09:50 AM 86 65 49% S1620 21 mph 177° @ 0919 AM 86 70 69 45 30.06" 0 0 558
Lubbock 3WNW TTU  09:50 AM 84 58 42% SW1319 20 mph 209° @ 0940 AM 84 71 56 41 30.09" 0 0 525
McLean 1E  09:50 AM 86 58 39% SW1015 17 mph 227° @ 0935 AM 86 71 64 39 30.04" 0 0 562
Memphis 1NE  09:50 AM 87 62 45% SE35 13 mph 135° @ 0330 AM 87 69 81 45 30.01" 0 0 477
Menard 2NW   09:50 AM 86 67 53% S1012 16 mph 195° @ 0940 AM 86 73 80 47 30.06" 0 0 529
Mertzon 3NNE  09:50 AM 87 68 53% S1519 22 mph 175° @ 0905 AM 87 75 71 46 30.07" 0 0 489
Morton 1ENE  09:50 AM 84 57 41% S1821 22 mph 190° @ 0930 AM 84 70 56 40 30.11" 0 0 509
Muleshoe 2SSW  09:50 AM 83 55 39% SW1621 24 mph 204° @ 0915 AM 83 61 73 38 30.11" 0 0 535
Northfield 1S  09:50 AM 89 63 44% W713 22 mph 169° @ 0305 AM 89 72 70 44 30.01" 0 0 522
O'Donnell 1N  09:50 AM 85 57 40% S1117 17 mph 188° @ 0950 AM 85 71 58 37 30.08" 0 0 438
Olton 6S  09:50 AM 83 57 41% SW1620 24 mph 202° @ 0945 AM 83 63 75 41 30.10" 0 0 527
Paducah 10SW  09:50 AM 88 62 43% SW1521 22 mph 221° @ 0930 AM 88 72 69 42 30.01" 0 0 470
Palo Duro Canyon SP Floor  09:50 AM 88 59 37% SW25 21 mph 142° @ 0343 AM 89 70 63 35 30.05" 0 0 524
Palo Duro Canyon State Park Rim  09:50 AM 87 57 36% SW914 23 mph 217° @ 0920 AM 87 70 58 35 30.10" 0 0 557
Pampa 2E  09:50 AM 84 59 43% SW1116 21 mph 232° @ 0940 AM 84 64 81 42 30.06" 0 0 519
Panhandle 1SSW  09:50 AM 85 59 42% SW1416 21 mph 232° @ 0919 AM 85 61 80 42 30.10" 0 0 572
Plains 3N  09:50 AM 85 56 39% S1519 23 mph 190° @ 0915 AM 85 69 61 39 30.11" 0 0 436
Plainview 1S  09:50 AM 82 59 48% SW1422 23 mph 218° @ 0940 AM 82 68 71 43 30.09" 0 0 522
Post 1NE  09:50 AM 88 59 39% S1116 20 mph 195° @ 0915 AM 88 76 49 36 30.05" 0 0 544
Ralls 1SE  09:50 AM 83 59 44% SW1317 19 mph 220° @ 0930 AM 83 67 67 44 30.10" 0 0 551
Reese Center  09:50 AM 83 58 44% SW1520 21 mph 218° @ 0905 AM 83 64 73 42 30.10" 0 0 559
Roaring Springs 3N  09:50 AM 87 61 43% SW1825 25 mph 225° @ 0950 AM 87 70 69 43 30.05" 0 0 454
San Angelo 7NW  09:50 AM 86 65 51% S913 16 mph 199° @ 0915 AM 87 74 61 37 30.05" 0 0 511
Seagraves 1SW  09:50 AM 85 58 41% S1215 20 mph 193° @ 0930 AM 85 67 68 40 30.10" 0 0 468
Seminole 2NNE  09:50 AM 85 56 39% S1824 24 mph 182° @ 0950 AM 85 73 55 39 30.08" 0 0 528
Seymour 3NW  09:50 AM 90 62 41% S1216 20 mph 184° @ 0900 AM 90 74 66 37 29.99" 0 0 550
Sierra Blanca 1SSE  09:50 AM 81 53 37% SE57 11 mph 84° @ 1220 AM 83 71 50 26 30.16" 0 0 525
Silverton 7ESE  09:50 AM 85 59 42% SW1925 25 mph 231° @ 0950 AM 85 66 73 42 30.08" 0 0 522
Slaton 2NE  09:50 AM 84 58 42% SW1720 20 mph 219° @ 0950 AM 84 69 61 39 30.09" 0 0 522
Snyder 3E  09:50 AM 86 63 49% S1116 19 mph 163° @ 0315 AM 86 73 64 42 30.06" 0 0 456
Snyder 3SSW  09:50 AM 85 64 50% S1416 18 mph 196° @ 0946 AM 85 73 63 45 30.06" 0 0 571
Spur 1W  09:50 AM 87 59 40% SW812 13 mph 227° @ 0940 AM 87 68 76 40 30.03" 0 0 498
St. Lawrence 5SW  09:50 AM 83 65 55% S1417 19 mph 175° @ 0930 AM 83 69 69 43 30.07" 0 0 530
Sterling City 4WSW  09:50 AM 86 67 53% SE912 21 mph 164° @ 0931 AM 86 67 76 39 30.06" 0 0 471
Sundown 8WSW  09:50 AM 85 57 39% S1420 22 mph 200° @ 0900 AM 85 64 69 39 30.11" 0 0 450
Sweetwater 11SW   09:50 AM 85 66 53% S1316 19 mph 194° @ 0840 AM 85 75 64 45 30.08" 0 0 554
Tahoka 3NNE  09:50 AM 85 59 41% SW1114 17 mph 200° @ 0927 AM 85 69 61 41 30.08" 0 0 544
Tarzan 2WNW  09:50 AM 85 63 47% S1115 17 mph 171° @ 0911 AM 85 72 61 44 30.07" 0 0 573
Tatum NM 2SW  09:50 AM 86 52 32% S1825 26 mph 183° @ 0855 AM 86 64 62 32 30.13" 0 0 473
Throckmorton 1SW  09:50 AM 89 68 50% S1216 16 mph 202° @ 0950 AM 89 73 73 47 30.01" 0 0 579
Tulia 2ENE  09:50 AM 82 59 47% SW1924 24 mph 229° @ 0930 AM 82 65 74 47 30.10" 0 0 501
Turkey 2WSW  09:50 AM 89 60 40% SW1824 26 mph 234° @ 0945 AM 89 72 66 40 30.02" 0 0 522
Umbarger 3NNE  09:50 AM 85 57 38% SW1823 27 mph 226° @ 0919 AM 85 63 67 36 30.10" 0 0 571
Vigo Park  09:50 AM 83 59 44% SW2022 24 mph 225° @ 0931 AM 83 63 78 44 30.10" 0 0 557
Wall 1E  09:50 AM 86 67 55% S1215 18 mph 196° @ 0905 AM 87 78 65 38 30.06" 0 0 456
Welch  09:50 AM 83 62 49% S912 17 mph 195° @ 0945 AM 83 66 80 49 30.10" 0 0 553
White River Lake 6NW  09:50 AM 86 58 40% S1014 20 mph 213° @ 0915 AM 86 73 55 35 30.06" 0 0 547
Wolfforth 6SSW  09:50 AM 83 58 44% SW1417 18 mph 206° @ 0940 AM 83 66 69 41 30.10" 0 0 495

West Texas Mesonet Home   Site Map/Menu  NWS Lubbock Soil Data  Daily Summary Page  24hr Precip  72hr Precip  Google Plot